sensor_id;sensor_type;location;lat;lon;timestamp;P1;durP1;ratioP1;P2;durP2;ratioP2
60873;SDS011;46715;40.642;-7.920;2023-05-18T00:01:02;11.23;;;4.93;;
60873;SDS011;46715;40.642;-7.920;2023-05-18T00:03:04;12.18;;;5.45;;
60873;SDS011;46715;40.642;-7.920;2023-05-18T00:05:06;10.43;;;5.38;;
60873;SDS011;46715;40.642;-7.920;2023-05-18T00:07:10;14.40;;;5.15;;
60873;SDS011;46715;40.642;-7.920;2023-05-18T00:09:10;10.70;;;5.40;;
60873;SDS011;46715;40.642;-7.920;2023-05-18T00:11:11;10.87;;;5.53;;
60873;SDS011;46715;40.642;-7.920;2023-05-18T00:13:12;7.78;;;4.88;;
60873;SDS011;46715;40.642;-7.920;2023-05-18T00:15:13;8.50;;;4.97;;
60873;SDS011;46715;40.642;-7.920;2023-05-18T00:17:14;8.43;;;4.87;;
60873;SDS011;46715;40.642;-7.920;2023-05-18T00:19:15;8.52;;;4.18;;
60873;SDS011;46715;40.642;-7.920;2023-05-18T00:21:17;8.80;;;4.85;;
60873;SDS011;46715;40.642;-7.920;2023-05-18T00:23:17;18.17;;;5.27;;
60873;SDS011;46715;40.642;-7.920;2023-05-18T00:25:18;11.50;;;4.82;;
60873;SDS011;46715;40.642;-7.920;2023-05-18T00:27:20;12.00;;;4.78;;
60873;SDS011;46715;40.642;-7.920;2023-05-18T00:29:20;11.77;;;4.57;;
60873;SDS011;46715;40.642;-7.920;2023-05-18T00:31:21;9.07;;;4.50;;
60873;SDS011;46715;40.642;-7.920;2023-05-18T00:33:22;10.90;;;4.53;;
60873;SDS011;46715;40.642;-7.920;2023-05-18T00:35:23;11.43;;;4.50;;
60873;SDS011;46715;40.642;-7.920;2023-05-18T00:37:26;8.02;;;3.97;;
60873;SDS011;46715;40.642;-7.920;2023-05-18T00:39:27;8.60;;;4.78;;
60873;SDS011;46715;40.642;-7.920;2023-05-18T00:41:29;15.50;;;4.28;;
60873;SDS011;46715;40.642;-7.920;2023-05-18T00:43:30;11.02;;;4.20;;
60873;SDS011;46715;40.642;-7.920;2023-05-18T00:45:31;9.30;;;3.85;;
60873;SDS011;46715;40.642;-7.920;2023-05-18T00:47:32;9.43;;;4.65;;
60873;SDS011;46715;40.642;-7.920;2023-05-18T00:49:34;6.37;;;4.13;;
60873;SDS011;46715;40.642;-7.920;2023-05-18T00:51:36;12.35;;;4.43;;
60873;SDS011;46715;40.642;-7.920;2023-05-18T00:53:39;8.05;;;4.28;;
60873;SDS011;46715;40.642;-7.920;2023-05-18T00:55:41;7.65;;;4.15;;
60873;SDS011;46715;40.642;-7.920;2023-05-18T00:57:42;9.90;;;4.40;;
60873;SDS011;46715;40.642;-7.920;2023-05-18T00:59:45;12.13;;;4.10;;
60873;SDS011;46715;40.642;-7.920;2023-05-18T01:01:48;7.30;;;4.35;;
60873;SDS011;46715;40.642;-7.920;2023-05-18T01:05:55;7.35;;;4.07;;
60873;SDS011;46715;40.642;-7.920;2023-05-18T01:07:57;12.82;;;4.38;;
60873;SDS011;46715;40.642;-7.920;2023-05-18T01:09:58;17.60;;;4.45;;
60873;SDS011;46715;40.642;-7.920;2023-05-18T01:12:06;10.13;;;4.15;;
60873;SDS011;46715;40.642;-7.920;2023-05-18T01:19:05;9.02;;;3.83;;
60873;SDS011;46715;40.642;-7.920;2023-05-18T01:21:37;6.88;;;3.80;;
60873;SDS011;46715;40.642;-7.920;2023-05-18T01:26:14;9.70;;;4.05;;
60873;SDS011;46715;40.642;-7.920;2023-05-18T01:28:19;9.57;;;3.58;;
60873;SDS011;46715;40.642;-7.920;2023-05-18T01:30:27;6.75;;;3.80;;
60873;SDS011;46715;40.642;-7.920;2023-05-18T01:32:28;6.90;;;4.05;;
60873;SDS011;46715;40.642;-7.920;2023-05-18T01:34:30;6.57;;;3.67;;
60873;SDS011;46715;40.642;-7.920;2023-05-18T01:36:33;8.15;;;4.32;;
60873;SDS011;46715;40.642;-7.920;2023-05-18T01:38:34;8.90;;;3.58;;
60873;SDS011;46715;40.642;-7.920;2023-05-18T01:40:36;16.55;;;4.30;;
60873;SDS011;46715;40.642;-7.920;2023-05-18T01:43:03;8.43;;;4.38;;
60873;SDS011;46715;40.642;-7.920;2023-05-18T01:45:14;7.20;;;3.65;;
60873;SDS011;46715;40.642;-7.920;2023-05-18T01:47:21;10.23;;;4.22;;
60873;SDS011;46715;40.642;-7.920;2023-05-18T01:51:32;9.40;;;3.60;;
60873;SDS011;46715;40.642;-7.920;2023-05-18T01:53:38;7.30;;;3.40;;
60873;SDS011;46715;40.642;-7.920;2023-05-18T01:55:44;5.88;;;3.67;;
60873;SDS011;46715;40.642;-7.920;2023-05-18T01:57:48;7.80;;;3.40;;
60873;SDS011;46715;40.642;-7.920;2023-05-18T01:59:53;14.13;;;4.00;;
60873;SDS011;46715;40.642;-7.920;2023-05-18T02:01:59;7.43;;;3.63;;
60873;SDS011;46715;40.642;-7.920;2023-05-18T02:04:01;11.32;;;4.20;;
60873;SDS011;46715;40.642;-7.920;2023-05-18T02:06:04;7.65;;;3.60;;
60873;SDS011;46715;40.642;-7.920;2023-05-18T02:08:05;8.20;;;4.03;;
60873;SDS011;46715;40.642;-7.920;2023-05-18T02:12:07;5.45;;;2.95;;
60873;SDS011;46715;40.642;-7.920;2023-05-18T02:14:09;9.57;;;3.63;;
60873;SDS011;46715;40.642;-7.920;2023-05-18T02:16:09;9.30;;;3.37;;
60873;SDS011;46715;40.642;-7.920;2023-05-18T02:18:11;9.38;;;3.47;;
60873;SDS011;46715;40.642;-7.920;2023-05-18T02:20:11;5.50;;;3.33;;
60873;SDS011;46715;40.642;-7.920;2023-05-18T02:22:13;9.13;;;3.25;;
60873;SDS011;46715;40.642;-7.920;2023-05-18T02:24:14;6.70;;;3.50;;
60873;SDS011;46715;40.642;-7.920;2023-05-18T02:26:17;6.45;;;3.22;;
60873;SDS011;46715;40.642;-7.920;2023-05-18T02:28:23;7.15;;;3.85;;
60873;SDS011;46715;40.642;-7.920;2023-05-18T02:30:25;7.35;;;3.22;;
60873;SDS011;46715;40.642;-7.920;2023-05-18T02:32:26;5.18;;;3.03;;
60873;SDS011;46715;40.642;-7.920;2023-05-18T02:34:33;10.48;;;3.70;;
60873;SDS011;46715;40.642;-7.920;2023-05-18T02:36:37;5.13;;;3.20;;
60873;SDS011;46715;40.642;-7.920;2023-05-18T02:38:42;9.05;;;3.63;;
60873;SDS011;46715;40.642;-7.920;2023-05-18T02:40:43;17.35;;;4.25;;
60873;SDS011;46715;40.642;-7.920;2023-05-18T02:42:44;8.63;;;3.33;;
60873;SDS011;46715;40.642;-7.920;2023-05-18T02:44:47;9.05;;;3.75;;
60873;SDS011;46715;40.642;-7.920;2023-05-18T02:46:49;7.63;;;3.85;;
60873;SDS011;46715;40.642;-7.920;2023-05-18T02:48:49;6.00;;;3.30;;
60873;SDS011;46715;40.642;-7.920;2023-05-18T02:50:50;8.17;;;3.83;;
60873;SDS011;46715;40.642;-7.920;2023-05-18T02:52:52;5.55;;;3.55;;
60873;SDS011;46715;40.642;-7.920;2023-05-18T02:54:52;8.70;;;3.60;;
60873;SDS011;46715;40.642;-7.920;2023-05-18T02:57:01;5.95;;;3.28;;
60873;SDS011;46715;40.642;-7.920;2023-05-18T02:59:14;6.95;;;3.67;;
60873;SDS011;46715;40.642;-7.920;2023-05-18T03:01:17;8.50;;;3.72;;
60873;SDS011;46715;40.642;-7.920;2023-05-18T03:03:22;8.52;;;4.07;;
60873;SDS011;46715;40.642;-7.920;2023-05-18T03:05:25;8.55;;;3.83;;
60873;SDS011;46715;40.642;-7.920;2023-05-18T03:07:26;8.57;;;3.75;;
60873;SDS011;46715;40.642;-7.920;2023-05-18T03:09:28;6.38;;;3.50;;
60873;SDS011;46715;40.642;-7.920;2023-05-18T03:11:29;9.38;;;4.00;;
60873;SDS011;46715;40.642;-7.920;2023-05-18T03:13:31;10.63;;;4.53;;
60873;SDS011;46715;40.642;-7.920;2023-05-18T03:15:33;8.57;;;3.65;;
60873;SDS011;46715;40.642;-7.920;2023-05-18T03:17:33;7.50;;;3.97;;
60873;SDS011;46715;40.642;-7.920;2023-05-18T03:19:34;7.47;;;3.92;;
60873;SDS011;46715;40.642;-7.920;2023-05-18T03:21:35;6.73;;;3.80;;
60873;SDS011;46715;40.642;-7.920;2023-05-18T03:23:36;7.65;;;3.88;;
60873;SDS011;46715;40.642;-7.920;2023-05-18T03:25:37;10.00;;;4.30;;
60873;SDS011;46715;40.642;-7.920;2023-05-18T03:27:39;8.20;;;3.97;;
60873;SDS011;46715;40.642;-7.920;2023-05-18T03:29:40;9.10;;;3.93;;
60873;SDS011;46715;40.642;-7.920;2023-05-18T03:31:47;4.63;;;3.17;;
60873;SDS011;46715;40.642;-7.920;2023-05-18T03:33:48;5.47;;;3.83;;
60873;SDS011;46715;40.642;-7.920;2023-05-18T03:35:50;7.03;;;3.70;;
60873;SDS011;46715;40.642;-7.920;2023-05-18T03:39:53;8.77;;;3.80;;
60873;SDS011;46715;40.642;-7.920;2023-05-18T03:41:58;6.75;;;3.80;;
60873;SDS011;46715;40.642;-7.920;2023-05-18T03:43:59;6.77;;;3.90;;
60873;SDS011;46715;40.642;-7.920;2023-05-18T03:46:00;8.63;;;4.10;;
60873;SDS011;46715;40.642;-7.920;2023-05-18T03:48:02;8.80;;;4.05;;
60873;SDS011;46715;40.642;-7.920;2023-05-18T03:50:04;7.88;;;3.40;;
60873;SDS011;46715;40.642;-7.920;2023-05-18T03:52:07;7.70;;;3.45;;
60873;SDS011;46715;40.642;-7.920;2023-05-18T03:54:08;9.13;;;3.87;;
60873;SDS011;46715;40.642;-7.920;2023-05-18T03:58:14;7.80;;;3.90;;
60873;SDS011;46715;40.642;-7.920;2023-05-18T04:00:16;7.65;;;4.15;;
60873;SDS011;46715;40.642;-7.920;2023-05-18T04:02:19;10.45;;;4.15;;
60873;SDS011;46715;40.642;-7.920;2023-05-18T04:04:21;8.10;;;3.72;;
60873;SDS011;46715;40.642;-7.920;2023-05-18T04:06:22;6.88;;;3.90;;
60873;SDS011;46715;40.642;-7.920;2023-05-18T04:08:25;5.50;;;3.80;;
60873;SDS011;46715;40.642;-7.920;2023-05-18T04:10:26;8.67;;;3.73;;
60873;SDS011;46715;40.642;-7.920;2023-05-18T04:12:28;7.22;;;4.03;;
60873;SDS011;46715;40.642;-7.920;2023-05-18T04:14:29;8.33;;;3.80;;
60873;SDS011;46715;40.642;-7.920;2023-05-18T04:16:32;9.30;;;3.97;;
60873;SDS011;46715;40.642;-7.920;2023-05-18T04:18:34;7.68;;;3.80;;
60873;SDS011;46715;40.642;-7.920;2023-05-18T04:20:35;8.48;;;3.60;;
60873;SDS011;46715;40.642;-7.920;2023-05-18T04:24:45;8.15;;;4.05;;
60873;SDS011;46715;40.642;-7.920;2023-05-18T04:26:46;7.93;;;4.00;;
60873;SDS011;46715;40.642;-7.920;2023-05-18T04:28:48;8.73;;;4.40;;
60873;SDS011;46715;40.642;-7.920;2023-05-18T04:30:49;7.72;;;3.72;;
60873;SDS011;46715;40.642;-7.920;2023-05-18T04:32:52;7.70;;;3.78;;
60873;SDS011;46715;40.642;-7.920;2023-05-18T04:34:54;9.82;;;3.60;;
60873;SDS011;46715;40.642;-7.920;2023-05-18T04:36:58;8.75;;;4.10;;
60873;SDS011;46715;40.642;-7.920;2023-05-18T04:39:00;7.15;;;3.72;;
60873;SDS011;46715;40.642;-7.920;2023-05-18T04:41:05;8.63;;;3.65;;
60873;SDS011;46715;40.642;-7.920;2023-05-18T04:43:08;6.15;;;3.97;;
60873;SDS011;46715;40.642;-7.920;2023-05-18T04:45:10;8.35;;;3.95;;
60873;SDS011;46715;40.642;-7.920;2023-05-18T04:47:15;8.50;;;3.90;;
60873;SDS011;46715;40.642;-7.920;2023-05-18T04:49:17;7.13;;;3.70;;
60873;SDS011;46715;40.642;-7.920;2023-05-18T04:51:22;7.97;;;4.00;;
60873;SDS011;46715;40.642;-7.920;2023-05-18T04:53:25;7.15;;;3.60;;
60873;SDS011;46715;40.642;-7.920;2023-05-18T04:57:48;6.20;;;3.88;;
60873;SDS011;46715;40.642;-7.920;2023-05-18T05:01:55;8.55;;;4.03;;
60873;SDS011;46715;40.642;-7.920;2023-05-18T05:03:57;6.35;;;4.03;;
60873;SDS011;46715;40.642;-7.920;2023-05-18T05:05:58;8.87;;;4.37;;
60873;SDS011;46715;40.642;-7.920;2023-05-18T05:07:59;5.73;;;3.73;;
60873;SDS011;46715;40.642;-7.920;2023-05-18T05:10:01;10.13;;;3.25;;
60873;SDS011;46715;40.642;-7.920;2023-05-18T05:12:03;7.82;;;3.50;;
60873;SDS011;46715;40.642;-7.920;2023-05-18T05:14:04;8.38;;;3.72;;
60873;SDS011;46715;40.642;-7.920;2023-05-18T05:16:05;9.83;;;3.87;;
60873;SDS011;46715;40.642;-7.920;2023-05-18T05:18:11;6.45;;;3.33;;
60873;SDS011;46715;40.642;-7.920;2023-05-18T05:20:12;9.18;;;3.80;;
60873;SDS011;46715;40.642;-7.920;2023-05-18T05:22:17;6.85;;;3.75;;
60873;SDS011;46715;40.642;-7.920;2023-05-18T05:24:19;6.15;;;3.70;;
60873;SDS011;46715;40.642;-7.920;2023-05-18T05:26:20;14.70;;;4.03;;
60873;SDS011;46715;40.642;-7.920;2023-05-18T05:28:21;4.50;;;3.30;;
60873;SDS011;46715;40.642;-7.920;2023-05-18T05:30:22;8.23;;;3.87;;
60873;SDS011;46715;40.642;-7.920;2023-05-18T05:32:23;6.13;;;3.70;;
60873;SDS011;46715;40.642;-7.920;2023-05-18T05:34:24;8.80;;;4.15;;
60873;SDS011;46715;40.642;-7.920;2023-05-18T05:36:26;8.43;;;3.63;;
60873;SDS011;46715;40.642;-7.920;2023-05-18T05:38:27;7.15;;;3.53;;
60873;SDS011;46715;40.642;-7.920;2023-05-18T05:40:28;9.65;;;3.75;;
60873;SDS011;46715;40.642;-7.920;2023-05-18T05:42:30;8.10;;;3.65;;
60873;SDS011;46715;40.642;-7.920;2023-05-18T05:44:33;7.88;;;3.78;;
60873;SDS011;46715;40.642;-7.920;2023-05-18T05:46:35;6.10;;;3.42;;
60873;SDS011;46715;40.642;-7.920;2023-05-18T05:48:37;5.90;;;3.42;;
60873;SDS011;46715;40.642;-7.920;2023-05-18T05:50:38;5.63;;;3.30;;
60873;SDS011;46715;40.642;-7.920;2023-05-18T05:52:39;8.43;;;3.70;;
60873;SDS011;46715;40.642;-7.920;2023-05-18T05:54:40;7.23;;;4.00;;
60873;SDS011;46715;40.642;-7.920;2023-05-18T05:56:41;10.32;;;3.75;;
60873;SDS011;46715;40.642;-7.920;2023-05-18T05:58:44;6.95;;;3.80;;
60873;SDS011;46715;40.642;-7.920;2023-05-18T06:00:45;8.18;;;3.83;;
60873;SDS011;46715;40.642;-7.920;2023-05-18T06:02:47;7.28;;;3.50;;
60873;SDS011;46715;40.642;-7.920;2023-05-18T06:04:52;7.97;;;3.40;;
60873;SDS011;46715;40.642;-7.920;2023-05-18T06:06:54;9.88;;;4.22;;
60873;SDS011;46715;40.642;-7.920;2023-05-18T06:08:55;6.85;;;3.42;;
60873;SDS011;46715;40.642;-7.920;2023-05-18T06:10:56;8.60;;;3.60;;
60873;SDS011;46715;40.642;-7.920;2023-05-18T06:12:57;12.95;;;4.95;;
60873;SDS011;46715;40.642;-7.920;2023-05-18T06:15:06;6.25;;;3.38;;
60873;SDS011;46715;40.642;-7.920;2023-05-18T06:17:09;8.95;;;3.72;;
60873;SDS011;46715;40.642;-7.920;2023-05-18T06:19:10;5.53;;;3.37;;
60873;SDS011;46715;40.642;-7.920;2023-05-18T06:21:11;6.30;;;3.63;;
60873;SDS011;46715;40.642;-7.920;2023-05-18T06:23:15;8.98;;;3.50;;
60873;SDS011;46715;40.642;-7.920;2023-05-18T06:25:36;6.10;;;3.70;;
60873;SDS011;46715;40.642;-7.920;2023-05-18T06:27:44;7.43;;;3.33;;
60873;SDS011;46715;40.642;-7.920;2023-05-18T06:30:03;7.80;;;3.38;;
60873;SDS011;46715;40.642;-7.920;2023-05-18T06:32:22;9.77;;;3.65;;
60873;SDS011;46715;40.642;-7.920;2023-05-18T06:34:27;7.82;;;3.20;;
60873;SDS011;46715;40.642;-7.920;2023-05-18T06:36:28;7.60;;;3.40;;
60873;SDS011;46715;40.642;-7.920;2023-05-18T06:38:31;6.63;;;3.38;;
60873;SDS011;46715;40.642;-7.920;2023-05-18T06:40:32;7.70;;;3.38;;
60873;SDS011;46715;40.642;-7.920;2023-05-18T06:42:32;9.07;;;2.87;;
60873;SDS011;46715;40.642;-7.920;2023-05-18T06:44:50;5.93;;;3.13;;
60873;SDS011;46715;40.642;-7.920;2023-05-18T06:46:52;6.65;;;3.50;;
60873;SDS011;46715;40.642;-7.920;2023-05-18T06:48:58;6.28;;;3.53;;
60873;SDS011;46715;40.642;-7.920;2023-05-18T06:51:01;6.68;;;3.13;;
60873;SDS011;46715;40.642;-7.920;2023-05-18T06:53:02;5.22;;;3.17;;
60873;SDS011;46715;40.642;-7.920;2023-05-18T06:55:04;6.68;;;3.15;;
60873;SDS011;46715;40.642;-7.920;2023-05-18T06:57:06;9.75;;;3.78;;
60873;SDS011;46715;40.642;-7.920;2023-05-18T06:59:07;7.70;;;3.97;;
60873;SDS011;46715;40.642;-7.920;2023-05-18T07:01:09;7.60;;;3.65;;
60873;SDS011;46715;40.642;-7.920;2023-05-18T07:03:10;10.30;;;3.42;;
60873;SDS011;46715;40.642;-7.920;2023-05-18T07:05:11;7.03;;;3.40;;
60873;SDS011;46715;40.642;-7.920;2023-05-18T07:07:12;8.13;;;3.45;;
60873;SDS011;46715;40.642;-7.920;2023-05-18T07:09:14;8.13;;;3.47;;
60873;SDS011;46715;40.642;-7.920;2023-05-18T07:11:14;7.82;;;3.85;;
60873;SDS011;46715;40.642;-7.920;2023-05-18T07:13:15;6.57;;;3.17;;
60873;SDS011;46715;40.642;-7.920;2023-05-18T07:15:17;8.77;;;3.28;;
60873;SDS011;46715;40.642;-7.920;2023-05-18T07:17:18;9.47;;;3.47;;
60873;SDS011;46715;40.642;-7.920;2023-05-18T07:19:18;6.43;;;3.53;;
60873;SDS011;46715;40.642;-7.920;2023-05-18T07:21:20;8.50;;;4.00;;
60873;SDS011;46715;40.642;-7.920;2023-05-18T07:23:21;4.83;;;3.67;;
60873;SDS011;46715;40.642;-7.920;2023-05-18T07:27:24;8.32;;;3.60;;
60873;SDS011;46715;40.642;-7.920;2023-05-18T07:29:25;9.88;;;3.45;;
60873;SDS011;46715;40.642;-7.920;2023-05-18T07:31:25;8.27;;;3.30;;
60873;SDS011;46715;40.642;-7.920;2023-05-18T07:33:27;8.65;;;3.35;;
60873;SDS011;46715;40.642;-7.920;2023-05-18T07:35:35;10.25;;;3.25;;
60873;SDS011;46715;40.642;-7.920;2023-05-18T07:37:44;14.05;;;3.15;;
60873;SDS011;46715;40.642;-7.920;2023-05-18T07:39:45;5.80;;;2.42;;
60873;SDS011;46715;40.642;-7.920;2023-05-18T07:41:46;9.13;;;2.92;;
60873;SDS011;46715;40.642;-7.920;2023-05-18T07:43:49;11.00;;;3.13;;
60873;SDS011;46715;40.642;-7.920;2023-05-18T07:45:50;15.13;;;2.60;;
60873;SDS011;46715;40.642;-7.920;2023-05-18T07:47:51;12.07;;;3.10;;
60873;SDS011;46715;40.642;-7.920;2023-05-18T07:49:52;10.30;;;2.70;;
60873;SDS011;46715;40.642;-7.920;2023-05-18T07:51:53;12.73;;;2.58;;
60873;SDS011;46715;40.642;-7.920;2023-05-18T07:53:54;9.52;;;3.60;;
60873;SDS011;46715;40.642;-7.920;2023-05-18T07:55:54;11.33;;;2.73;;
60873;SDS011;46715;40.642;-7.920;2023-05-18T07:57:55;11.27;;;2.70;;
60873;SDS011;46715;40.642;-7.920;2023-05-18T07:59:56;18.87;;;3.33;;
60873;SDS011;46715;40.642;-7.920;2023-05-18T08:01:57;11.45;;;2.95;;
60873;SDS011;46715;40.642;-7.920;2023-05-18T08:03:59;7.20;;;3.25;;
60873;SDS011;46715;40.642;-7.920;2023-05-18T08:06:01;7.53;;;2.80;;
60873;SDS011;46715;40.642;-7.920;2023-05-18T08:08:02;5.82;;;2.95;;
60873;SDS011;46715;40.642;-7.920;2023-05-18T08:10:09;9.15;;;2.85;;
60873;SDS011;46715;40.642;-7.920;2023-05-18T08:12:10;5.53;;;2.85;;
60873;SDS011;46715;40.642;-7.920;2023-05-18T08:14:12;6.20;;;2.50;;
60873;SDS011;46715;40.642;-7.920;2023-05-18T08:16:13;7.15;;;2.38;;
60873;SDS011;46715;40.642;-7.920;2023-05-18T08:18:14;6.00;;;2.55;;
60873;SDS011;46715;40.642;-7.920;2023-05-18T08:20:15;10.20;;;2.72;;
60873;SDS011;46715;40.642;-7.920;2023-05-18T08:24:20;6.97;;;2.45;;
60873;SDS011;46715;40.642;-7.920;2023-05-18T08:26:21;8.70;;;2.70;;
60873;SDS011;46715;40.642;-7.920;2023-05-18T08:28:23;8.65;;;2.70;;
60873;SDS011;46715;40.642;-7.920;2023-05-18T08:30:24;7.03;;;2.10;;
60873;SDS011;46715;40.642;-7.920;2023-05-18T08:32:26;9.32;;;2.65;;
60873;SDS011;46715;40.642;-7.920;2023-05-18T08:34:27;7.97;;;2.75;;
60873;SDS011;46715;40.642;-7.920;2023-05-18T08:36:29;9.73;;;2.90;;
60873;SDS011;46715;40.642;-7.920;2023-05-18T08:38:31;6.82;;;2.58;;
60873;SDS011;46715;40.642;-7.920;2023-05-18T08:40:33;6.97;;;2.00;;
60873;SDS011;46715;40.642;-7.920;2023-05-18T08:42:56;18.50;;;3.55;;
60873;SDS011;46715;40.642;-7.920;2023-05-18T08:45:09;9.37;;;3.20;;
60873;SDS011;46715;40.642;-7.920;2023-05-18T08:47:13;7.17;;;2.33;;
60873;SDS011;46715;40.642;-7.920;2023-05-18T08:49:23;9.15;;;2.45;;
60873;SDS011;46715;40.642;-7.920;2023-05-18T08:51:53;12.35;;;3.13;;
60873;SDS011;46715;40.642;-7.920;2023-05-18T08:53:57;7.32;;;2.10;;
60873;SDS011;46715;40.642;-7.920;2023-05-18T08:55:59;5.30;;;2.38;;
60873;SDS011;46715;40.642;-7.920;2023-05-18T08:58:02;10.40;;;3.03;;
60873;SDS011;46715;40.642;-7.920;2023-05-18T09:00:05;8.45;;;2.60;;
60873;SDS011;46715;40.642;-7.920;2023-05-18T09:02:09;7.45;;;2.78;;
60873;SDS011;46715;40.642;-7.920;2023-05-18T09:04:10;9.55;;;3.05;;
60873;SDS011;46715;40.642;-7.920;2023-05-18T09:06:12;9.65;;;2.50;;
60873;SDS011;46715;40.642;-7.920;2023-05-18T09:08:15;13.00;;;3.28;;
60873;SDS011;46715;40.642;-7.920;2023-05-18T09:10:17;8.05;;;2.85;;
60873;SDS011;46715;40.642;-7.920;2023-05-18T09:12:21;15.52;;;3.40;;
60873;SDS011;46715;40.642;-7.920;2023-05-18T09:14:23;5.05;;;2.63;;
60873;SDS011;46715;40.642;-7.920;2023-05-18T09:16:26;4.80;;;2.33;;
60873;SDS011;46715;40.642;-7.920;2023-05-18T09:18:27;4.30;;;2.38;;
60873;SDS011;46715;40.642;-7.920;2023-05-18T09:20:31;6.45;;;2.20;;
60873;SDS011;46715;40.642;-7.920;2023-05-18T09:22:36;5.18;;;2.33;;
60873;SDS011;46715;40.642;-7.920;2023-05-18T09:24:40;6.50;;;2.50;;
60873;SDS011;46715;40.642;-7.920;2023-05-18T09:26:43;8.68;;;2.90;;
60873;SDS011;46715;40.642;-7.920;2023-05-18T09:28:51;9.38;;;2.90;;
60873;SDS011;46715;40.642;-7.920;2023-05-18T09:30:52;5.93;;;2.70;;
60873;SDS011;46715;40.642;-7.920;2023-05-18T09:32:59;7.88;;;2.72;;
60873;SDS011;46715;40.642;-7.920;2023-05-18T09:35:04;13.60;;;2.70;;
60873;SDS011;46715;40.642;-7.920;2023-05-18T09:37:14;12.90;;;2.92;;
60873;SDS011;46715;40.642;-7.920;2023-05-18T09:39:16;6.03;;;2.45;;
60873;SDS011;46715;40.642;-7.920;2023-05-18T09:41:25;4.25;;;2.33;;
60873;SDS011;46715;40.642;-7.920;2023-05-18T09:43:27;5.05;;;2.30;;
60873;SDS011;46715;40.642;-7.920;2023-05-18T09:45:28;7.20;;;2.85;;
60873;SDS011;46715;40.642;-7.920;2023-05-18T09:47:29;8.43;;;2.45;;
60873;SDS011;46715;40.642;-7.920;2023-05-18T09:49:33;7.82;;;2.45;;
60873;SDS011;46715;40.642;-7.920;2023-05-18T09:51:36;5.43;;;2.50;;
60873;SDS011;46715;40.642;-7.920;2023-05-18T09:53:42;8.18;;;2.40;;
60873;SDS011;46715;40.642;-7.920;2023-05-18T09:55:52;4.88;;;2.15;;
60873;SDS011;46715;40.642;-7.920;2023-05-18T09:57:53;6.20;;;2.13;;
60873;SDS011;46715;40.642;-7.920;2023-05-18T10:00:02;5.53;;;2.85;;
60873;SDS011;46715;40.642;-7.920;2023-05-18T10:02:09;10.13;;;2.88;;
60873;SDS011;46715;40.642;-7.920;2023-05-18T10:04:12;6.53;;;2.70;;
60873;SDS011;46715;40.642;-7.920;2023-05-18T10:06:14;11.93;;;3.08;;
60873;SDS011;46715;40.642;-7.920;2023-05-18T10:08:19;9.45;;;2.83;;
60873;SDS011;46715;40.642;-7.920;2023-05-18T10:10:21;6.75;;;2.75;;
60873;SDS011;46715;40.642;-7.920;2023-05-18T10:12:23;7.05;;;2.90;;
60873;SDS011;46715;40.642;-7.920;2023-05-18T10:14:25;9.20;;;3.03;;
60873;SDS011;46715;40.642;-7.920;2023-05-18T10:16:30;10.20;;;2.95;;
60873;SDS011;46715;40.642;-7.920;2023-05-18T10:18:35;7.53;;;3.70;;
60873;SDS011;46715;40.642;-7.920;2023-05-18T10:20:37;8.60;;;2.75;;
60873;SDS011;46715;40.642;-7.920;2023-05-18T10:22:38;9.27;;;3.50;;
60873;SDS011;46715;40.642;-7.920;2023-05-18T10:24:41;5.97;;;3.38;;
60873;SDS011;46715;40.642;-7.920;2023-05-18T10:26:44;11.90;;;3.55;;
60873;SDS011;46715;40.642;-7.920;2023-05-18T10:28:52;12.73;;;3.22;;
60873;SDS011;46715;40.642;-7.920;2023-05-18T10:30:57;11.18;;;3.00;;
60873;SDS011;46715;40.642;-7.920;2023-05-18T10:33:01;9.55;;;2.75;;
60873;SDS011;46715;40.642;-7.920;2023-05-18T10:35:04;11.85;;;2.72;;
60873;SDS011;46715;40.642;-7.920;2023-05-18T10:37:07;9.60;;;2.65;;
60873;SDS011;46715;40.642;-7.920;2023-05-18T10:39:10;7.82;;;3.38;;
60873;SDS011;46715;40.642;-7.920;2023-05-18T10:41:11;5.25;;;2.40;;
60873;SDS011;46715;40.642;-7.920;2023-05-18T10:43:14;6.55;;;4.10;;
60873;SDS011;46715;40.642;-7.920;2023-05-18T10:45:17;7.70;;;2.55;;
60873;SDS011;46715;40.642;-7.920;2023-05-18T10:47:21;9.70;;;2.67;;
60873;SDS011;46715;40.642;-7.920;2023-05-18T10:49:25;7.93;;;2.60;;
60873;SDS011;46715;40.642;-7.920;2023-05-18T10:51:28;13.27;;;3.20;;
60873;SDS011;46715;40.642;-7.920;2023-05-18T10:53:31;8.05;;;2.70;;
60873;SDS011;46715;40.642;-7.920;2023-05-18T10:55:32;11.68;;;2.90;;
60873;SDS011;46715;40.642;-7.920;2023-05-18T10:57:36;5.70;;;2.33;;
60873;SDS011;46715;40.642;-7.920;2023-05-18T10:59:40;7.45;;;2.85;;
60873;SDS011;46715;40.642;-7.920;2023-05-18T11:01:43;5.78;;;2.67;;
60873;SDS011;46715;40.642;-7.920;2023-05-18T11:03:46;7.65;;;2.90;;
60873;SDS011;46715;40.642;-7.920;2023-05-18T11:05:49;6.75;;;2.95;;
60873;SDS011;46715;40.642;-7.920;2023-05-18T11:08:01;11.80;;;3.17;;
60873;SDS011;46715;40.642;-7.920;2023-05-18T11:10:08;5.97;;;2.75;;
60873;SDS011;46715;40.642;-7.920;2023-05-18T11:12:14;11.05;;;3.10;;
60873;SDS011;46715;40.642;-7.920;2023-05-18T11:14:23;10.10;;;3.22;;
60873;SDS011;46715;40.642;-7.920;2023-05-18T11:16:34;13.75;;;3.47;;
60873;SDS011;46715;40.642;-7.920;2023-05-18T11:18:45;13.50;;;3.65;;
60873;SDS011;46715;40.642;-7.920;2023-05-18T11:20:57;7.45;;;3.47;;
60873;SDS011;46715;40.642;-7.920;2023-05-18T11:23:13;9.05;;;3.33;;
60873;SDS011;46715;40.642;-7.920;2023-05-18T11:27:28;8.02;;;3.25;;
60873;SDS011;46715;40.642;-7.920;2023-05-18T11:29:30;9.10;;;3.28;;
60873;SDS011;46715;40.642;-7.920;2023-05-18T11:31:52;7.75;;;3.78;;
60873;SDS011;46715;40.642;-7.920;2023-05-18T11:33:54;8.95;;;3.80;;
60873;SDS011;46715;40.642;-7.920;2023-05-18T11:38:11;8.05;;;3.72;;
60873;SDS011;46715;40.642;-7.920;2023-05-18T11:42:57;5.85;;;3.63;;
60873;SDS011;46715;40.642;-7.920;2023-05-18T11:45:04;6.68;;;3.45;;
60873;SDS011;46715;40.642;-7.920;2023-05-18T11:47:11;5.65;;;3.00;;
60873;SDS011;46715;40.642;-7.920;2023-05-18T11:49:18;11.52;;;3.45;;
60873;SDS011;46715;40.642;-7.920;2023-05-18T11:51:21;6.90;;;2.90;;
60873;SDS011;46715;40.642;-7.920;2023-05-18T11:53:25;8.10;;;2.95;;
60873;SDS011;46715;40.642;-7.920;2023-05-18T11:55:36;5.35;;;2.75;;
60873;SDS011;46715;40.642;-7.920;2023-05-18T11:57:41;8.85;;;3.20;;
60873;SDS011;46715;40.642;-7.920;2023-05-18T11:59:55;6.72;;;2.55;;
60873;SDS011;46715;40.642;-7.920;2023-05-18T12:01:59;7.88;;;2.60;;
60873;SDS011;46715;40.642;-7.920;2023-05-18T12:04:02;5.70;;;2.53;;
60873;SDS011;46715;40.642;-7.920;2023-05-18T12:06:03;5.47;;;2.03;;
60873;SDS011;46715;40.642;-7.920;2023-05-18T12:08:06;5.40;;;2.95;;
60873;SDS011;46715;40.642;-7.920;2023-05-18T12:10:12;6.43;;;2.20;;
60873;SDS011;46715;40.642;-7.920;2023-05-18T12:12:15;5.10;;;2.60;;
60873;SDS011;46715;40.642;-7.920;2023-05-18T12:14:19;5.40;;;2.67;;
60873;SDS011;46715;40.642;-7.920;2023-05-18T12:16:21;10.13;;;3.20;;
60873;SDS011;46715;40.642;-7.920;2023-05-18T12:18:22;5.75;;;2.55;;
60873;SDS011;46715;40.642;-7.920;2023-05-18T12:22:30;6.80;;;3.33;;
60873;SDS011;46715;40.642;-7.920;2023-05-18T12:24:45;7.07;;;3.30;;
60873;SDS011;46715;40.642;-7.920;2023-05-18T12:26:46;7.47;;;3.15;;
60873;SDS011;46715;40.642;-7.920;2023-05-18T12:30:57;9.93;;;3.27;;
60873;SDS011;46715;40.642;-7.920;2023-05-18T12:32:59;7.10;;;3.20;;
60873;SDS011;46715;40.642;-7.920;2023-05-18T12:35:24;9.98;;;3.40;;
60873;SDS011;46715;40.642;-7.920;2023-05-18T12:37:26;9.82;;;2.95;;
60873;SDS011;46715;40.642;-7.920;2023-05-18T12:39:26;5.33;;;2.70;;
60873;SDS011;46715;40.642;-7.920;2023-05-18T12:41:27;10.02;;;3.00;;
60873;SDS011;46715;40.642;-7.920;2023-05-18T12:43:32;9.55;;;2.85;;
60873;SDS011;46715;40.642;-7.920;2023-05-18T12:45:34;8.30;;;2.72;;
60873;SDS011;46715;40.642;-7.920;2023-05-18T12:47:39;6.15;;;3.15;;
60873;SDS011;46715;40.642;-7.920;2023-05-18T12:49:46;7.45;;;2.90;;